sensor_id;sensor_type;location;lat;lon;timestamp;P1;durP1;ratioP1;P2;durP2;ratioP2
3677;SDS011;1855;50.934;6.958;2023-02-07T00:01:22;11.55;;;8.90;;
3677;SDS011;1855;50.934;6.958;2023-02-07T00:03:49;12.30;;;8.45;;
3677;SDS011;1855;50.934;6.958;2023-02-07T00:06:18;13.02;;;8.75;;
3677;SDS011;1855;50.934;6.958;2023-02-07T00:08:47;10.32;;;7.82;;
3677;SDS011;1855;50.934;6.958;2023-02-07T00:11:15;11.13;;;8.70;;
3677;SDS011;1855;50.934;6.958;2023-02-07T00:13:46;11.10;;;8.30;;
3677;SDS011;1855;50.934;6.958;2023-02-07T00:16:14;13.02;;;8.95;;
3677;SDS011;1855;50.934;6.958;2023-02-07T00:18:41;11.32;;;8.32;;
3677;SDS011;1855;50.934;6.958;2023-02-07T00:21:09;12.23;;;8.77;;
3677;SDS011;1855;50.934;6.958;2023-02-07T00:23:38;11.93;;;8.30;;
3677;SDS011;1855;50.934;6.958;2023-02-07T00:26:06;12.77;;;8.50;;
3677;SDS011;1855;50.934;6.958;2023-02-07T00:28:33;10.18;;;7.90;;
3677;SDS011;1855;50.934;6.958;2023-02-07T00:31:02;11.00;;;7.90;;
3677;SDS011;1855;50.934;6.958;2023-02-07T00:33:31;11.02;;;7.45;;
3677;SDS011;1855;50.934;6.958;2023-02-07T00:35:58;9.65;;;8.10;;
3677;SDS011;1855;50.934;6.958;2023-02-07T00:38:26;12.05;;;7.90;;
3677;SDS011;1855;50.934;6.958;2023-02-07T00:40:53;13.02;;;8.80;;
3677;SDS011;1855;50.934;6.958;2023-02-07T00:43:20;10.55;;;8.13;;
3677;SDS011;1855;50.934;6.958;2023-02-07T00:45:47;10.10;;;7.80;;
3677;SDS011;1855;50.934;6.958;2023-02-07T00:48:15;11.30;;;8.10;;
3677;SDS011;1855;50.934;6.958;2023-02-07T00:50:42;10.13;;;8.60;;
3677;SDS011;1855;50.934;6.958;2023-02-07T00:53:09;13.32;;;9.05;;
3677;SDS011;1855;50.934;6.958;2023-02-07T00:55:35;9.95;;;8.95;;
3677;SDS011;1855;50.934;6.958;2023-02-07T00:58:02;11.68;;;9.80;;
3677;SDS011;1855;50.934;6.958;2023-02-07T01:00:29;11.48;;;8.40;;
3677;SDS011;1855;50.934;6.958;2023-02-07T01:02:56;12.15;;;8.60;;
3677;SDS011;1855;50.934;6.958;2023-02-07T01:05:24;11.20;;;9.20;;
3677;SDS011;1855;50.934;6.958;2023-02-07T01:07:51;10.30;;;8.52;;
3677;SDS011;1855;50.934;6.958;2023-02-07T01:10:17;10.80;;;8.68;;
3677;SDS011;1855;50.934;6.958;2023-02-07T01:12:45;10.48;;;8.57;;
3677;SDS011;1855;50.934;6.958;2023-02-07T01:15:11;9.20;;;7.80;;
3677;SDS011;1855;50.934;6.958;2023-02-07T01:17:38;11.05;;;9.15;;
3677;SDS011;1855;50.934;6.958;2023-02-07T01:20:05;9.75;;;8.60;;
3677;SDS011;1855;50.934;6.958;2023-02-07T01:22:34;10.13;;;8.85;;
3677;SDS011;1855;50.934;6.958;2023-02-07T01:25:02;10.95;;;8.90;;
3677;SDS011;1855;50.934;6.958;2023-02-07T01:27:29;12.20;;;9.10;;
3677;SDS011;1855;50.934;6.958;2023-02-07T01:29:56;12.32;;;9.70;;
3677;SDS011;1855;50.934;6.958;2023-02-07T01:32:23;11.48;;;9.20;;
3677;SDS011;1855;50.934;6.958;2023-02-07T01:34:50;12.70;;;8.90;;
3677;SDS011;1855;50.934;6.958;2023-02-07T01:37:17;12.50;;;9.17;;
3677;SDS011;1855;50.934;6.958;2023-02-07T01:39:45;11.45;;;8.45;;
3677;SDS011;1855;50.934;6.958;2023-02-07T01:42:12;9.60;;;8.60;;
3677;SDS011;1855;50.934;6.958;2023-02-07T01:45:00;10.27;;;9.18;;
3677;SDS011;1855;50.934;6.958;2023-02-07T01:47:30;13.38;;;9.13;;
3677;SDS011;1855;50.934;6.958;2023-02-07T01:49:58;11.80;;;9.48;;
3677;SDS011;1855;50.934;6.958;2023-02-07T01:52:26;13.10;;;9.50;;
3677;SDS011;1855;50.934;6.958;2023-02-07T01:54:57;13.87;;;9.40;;
3677;SDS011;1855;50.934;6.958;2023-02-07T01:57:27;10.73;;;8.75;;
3677;SDS011;1855;50.934;6.958;2023-02-07T01:59:54;11.70;;;9.40;;
3677;SDS011;1855;50.934;6.958;2023-02-07T02:02:22;10.15;;;8.80;;
3677;SDS011;1855;50.934;6.958;2023-02-07T02:04:51;10.90;;;8.77;;
3677;SDS011;1855;50.934;6.958;2023-02-07T02:07:19;12.25;;;9.48;;
3677;SDS011;1855;50.934;6.958;2023-02-07T02:09:48;12.65;;;8.82;;
3677;SDS011;1855;50.934;6.958;2023-02-07T02:12:34;12.03;;;9.60;;
3677;SDS011;1855;50.934;6.958;2023-02-07T02:15:29;11.35;;;9.10;;
3677;SDS011;1855;50.934;6.958;2023-02-07T02:18:02;10.88;;;9.52;;
3677;SDS011;1855;50.934;6.958;2023-02-07T02:23:45;12.10;;;9.50;;
3677;SDS011;1855;50.934;6.958;2023-02-07T02:26:48;10.98;;;9.35;;
3677;SDS011;1855;50.934;6.958;2023-02-07T02:32:32;12.63;;;9.55;;
3677;SDS011;1855;50.934;6.958;2023-02-07T02:35:18;11.50;;;9.30;;
3677;SDS011;1855;50.934;6.958;2023-02-07T02:37:49;11.10;;;9.13;;
3677;SDS011;1855;50.934;6.958;2023-02-07T02:40:24;11.65;;;9.48;;
3677;SDS011;1855;50.934;6.958;2023-02-07T02:42:57;11.80;;;9.88;;
3677;SDS011;1855;50.934;6.958;2023-02-07T02:45:32;11.68;;;10.13;;
3677;SDS011;1855;50.934;6.958;2023-02-07T02:48:05;12.60;;;9.07;;
3677;SDS011;1855;50.934;6.958;2023-02-07T02:50:35;12.40;;;9.20;;
3677;SDS011;1855;50.934;6.958;2023-02-07T02:53:03;12.63;;;9.30;;
3677;SDS011;1855;50.934;6.958;2023-02-07T02:55:41;10.07;;;8.80;;
3677;SDS011;1855;50.934;6.958;2023-02-07T02:58:20;12.43;;;8.95;;
3677;SDS011;1855;50.934;6.958;2023-02-07T03:01:02;11.35;;;9.10;;
3677;SDS011;1855;50.934;6.958;2023-02-07T03:03:39;11.75;;;8.70;;
3677;SDS011;1855;50.934;6.958;2023-02-07T03:06:20;12.27;;;8.70;;
3677;SDS011;1855;50.934;6.958;2023-02-07T03:08:59;11.13;;;9.40;;
3677;SDS011;1855;50.934;6.958;2023-02-07T03:11:35;10.50;;;8.50;;
3677;SDS011;1855;50.934;6.958;2023-02-07T03:14:07;12.43;;;9.18;;
3677;SDS011;1855;50.934;6.958;2023-02-07T03:16:42;9.73;;;8.80;;
3677;SDS011;1855;50.934;6.958;2023-02-07T03:19:17;11.10;;;8.68;;
3677;SDS011;1855;50.934;6.958;2023-02-07T03:21:48;11.10;;;8.82;;
3677;SDS011;1855;50.934;6.958;2023-02-07T03:24:19;10.20;;;9.20;;
3677;SDS011;1855;50.934;6.958;2023-02-07T03:26:50;9.68;;;8.20;;
3677;SDS011;1855;50.934;6.958;2023-02-07T03:29:21;10.43;;;8.57;;
3677;SDS011;1855;50.934;6.958;2023-02-07T03:31:50;9.95;;;8.35;;
3677;SDS011;1855;50.934;6.958;2023-02-07T03:34:21;10.50;;;8.15;;
3677;SDS011;1855;50.934;6.958;2023-02-07T03:36:52;9.68;;;8.63;;
3677;SDS011;1855;50.934;6.958;2023-02-07T03:39:22;11.40;;;8.63;;
3677;SDS011;1855;50.934;6.958;2023-02-07T03:41:50;10.18;;;8.43;;
3677;SDS011;1855;50.934;6.958;2023-02-07T03:44:21;9.60;;;8.60;;
3677;SDS011;1855;50.934;6.958;2023-02-07T03:46:51;9.73;;;8.63;;
3677;SDS011;1855;50.934;6.958;2023-02-07T03:49:18;10.65;;;8.77;;
3677;SDS011;1855;50.934;6.958;2023-02-07T03:51:47;9.43;;;8.43;;
3677;SDS011;1855;50.934;6.958;2023-02-07T03:54:14;9.13;;;8.23;;
3677;SDS011;1855;50.934;6.958;2023-02-07T03:56:41;9.40;;;7.90;;
3677;SDS011;1855;50.934;6.958;2023-02-07T03:59:07;9.30;;;8.30;;
3677;SDS011;1855;50.934;6.958;2023-02-07T04:01:34;9.68;;;8.60;;
3677;SDS011;1855;50.934;6.958;2023-02-07T04:04:05;9.40;;;8.10;;
3677;SDS011;1855;50.934;6.958;2023-02-07T04:06:34;10.25;;;8.93;;
3677;SDS011;1855;50.934;6.958;2023-02-07T04:09:00;11.27;;;9.00;;
3677;SDS011;1855;50.934;6.958;2023-02-07T04:11:27;8.90;;;7.75;;
3677;SDS011;1855;50.934;6.958;2023-02-07T04:13:54;10.38;;;8.38;;
3677;SDS011;1855;50.934;6.958;2023-02-07T04:16:21;10.57;;;8.57;;
3677;SDS011;1855;50.934;6.958;2023-02-07T04:18:48;10.07;;;8.30;;
3677;SDS011;1855;50.934;6.958;2023-02-07T04:21:15;9.23;;;8.27;;
3677;SDS011;1855;50.934;6.958;2023-02-07T04:23:43;10.50;;;8.80;;
3677;SDS011;1855;50.934;6.958;2023-02-07T04:26:10;10.35;;;8.68;;
3677;SDS011;1855;50.934;6.958;2023-02-07T04:28:36;9.88;;;8.52;;
3677;SDS011;1855;50.934;6.958;2023-02-07T04:31:03;10.70;;;9.10;;
3677;SDS011;1855;50.934;6.958;2023-02-07T04:33:30;9.77;;;8.65;;
3677;SDS011;1855;50.934;6.958;2023-02-07T04:35:58;10.05;;;8.50;;
3677;SDS011;1855;50.934;6.958;2023-02-07T04:38:26;9.18;;;8.15;;
3677;SDS011;1855;50.934;6.958;2023-02-07T04:40:57;12.43;;;8.05;;
3677;SDS011;1855;50.934;6.958;2023-02-07T04:43:27;10.20;;;8.43;;
3677;SDS011;1855;50.934;6.958;2023-02-07T04:45:54;9.97;;;8.60;;
3677;SDS011;1855;50.934;6.958;2023-02-07T04:48:21;11.57;;;8.35;;
3677;SDS011;1855;50.934;6.958;2023-02-07T04:50:48;9.38;;;8.48;;
3677;SDS011;1855;50.934;6.958;2023-02-07T04:53:15;9.60;;;8.15;;
3677;SDS011;1855;50.934;6.958;2023-02-07T04:55:41;9.02;;;8.13;;
3677;SDS011;1855;50.934;6.958;2023-02-07T04:58:09;7.63;;;6.80;;
3677;SDS011;1855;50.934;6.958;2023-02-07T05:00:36;10.40;;;8.32;;
3677;SDS011;1855;50.934;6.958;2023-02-07T05:03:03;9.73;;;7.77;;
3677;SDS011;1855;50.934;6.958;2023-02-07T05:05:30;10.25;;;8.88;;
3677;SDS011;1855;50.934;6.958;2023-02-07T05:07:56;10.03;;;7.87;;
3677;SDS011;1855;50.934;6.958;2023-02-07T05:10:23;9.90;;;8.27;;
3677;SDS011;1855;50.934;6.958;2023-02-07T05:12:50;12.87;;;9.73;;
3677;SDS011;1855;50.934;6.958;2023-02-07T05:15:18;8.40;;;7.60;;
3677;SDS011;1855;50.934;6.958;2023-02-07T05:17:45;7.75;;;6.63;;
3677;SDS011;1855;50.934;6.958;2023-02-07T05:20:13;7.90;;;6.60;;
3677;SDS011;1855;50.934;6.958;2023-02-07T05:22:40;7.30;;;6.53;;
3677;SDS011;1855;50.934;6.958;2023-02-07T05:25:07;7.30;;;6.60;;
3677;SDS011;1855;50.934;6.958;2023-02-07T05:27:34;7.10;;;6.20;;
3677;SDS011;1855;50.934;6.958;2023-02-07T05:30:01;7.95;;;7.15;;
3677;SDS011;1855;50.934;6.958;2023-02-07T05:32:29;7.13;;;6.50;;
3677;SDS011;1855;50.934;6.958;2023-02-07T05:35:14;9.23;;;6.82;;
3677;SDS011;1855;50.934;6.958;2023-02-07T05:37:41;7.25;;;5.63;;
3677;SDS011;1855;50.934;6.958;2023-02-07T05:40:08;6.60;;;5.90;;
3677;SDS011;1855;50.934;6.958;2023-02-07T05:42:37;6.00;;;5.40;;
3677;SDS011;1855;50.934;6.958;2023-02-07T05:45:04;5.55;;;5.05;;
3677;SDS011;1855;50.934;6.958;2023-02-07T05:47:33;5.80;;;4.80;;
3677;SDS011;1855;50.934;6.958;2023-02-07T05:50:02;6.20;;;5.60;;
3677;SDS011;1855;50.934;6.958;2023-02-07T05:52:31;6.55;;;5.90;;
3677;SDS011;1855;50.934;6.958;2023-02-07T05:54:58;6.28;;;5.68;;
3677;SDS011;1855;50.934;6.958;2023-02-07T05:57:25;7.10;;;6.00;;
3677;SDS011;1855;50.934;6.958;2023-02-07T05:59:52;5.90;;;5.30;;
3677;SDS011;1855;50.934;6.958;2023-02-07T06:02:18;6.25;;;5.10;;
3677;SDS011;1855;50.934;6.958;2023-02-07T06:04:48;5.85;;;5.35;;
3677;SDS011;1855;50.934;6.958;2023-02-07T06:07:15;7.07;;;5.50;;
3677;SDS011;1855;50.934;6.958;2023-02-07T06:09:41;6.13;;;5.53;;
3677;SDS011;1855;50.934;6.958;2023-02-07T06:12:08;6.00;;;5.40;;
3677;SDS011;1855;50.934;6.958;2023-02-07T06:14:35;5.75;;;5.22;;
3677;SDS011;1855;50.934;6.958;2023-02-07T06:17:02;6.18;;;5.45;;
3677;SDS011;1855;50.934;6.958;2023-02-07T06:19:29;6.18;;;5.60;;
3677;SDS011;1855;50.934;6.958;2023-02-07T06:21:57;7.30;;;5.80;;
3677;SDS011;1855;50.934;6.958;2023-02-07T06:24:24;5.97;;;5.38;;
3677;SDS011;1855;50.934;6.958;2023-02-07T06:26:50;5.78;;;5.18;;
3677;SDS011;1855;50.934;6.958;2023-02-07T06:29:17;5.90;;;5.30;;
3677;SDS011;1855;50.934;6.958;2023-02-07T06:31:44;5.77;;;5.17;;
3677;SDS011;1855;50.934;6.958;2023-02-07T06:34:11;5.60;;;5.10;;
3677;SDS011;1855;50.934;6.958;2023-02-07T06:36:37;5.53;;;5.03;;
3677;SDS011;1855;50.934;6.958;2023-02-07T06:39:05;5.85;;;5.25;;
3677;SDS011;1855;50.934;6.958;2023-02-07T06:41:34;6.00;;;5.40;;
3677;SDS011;1855;50.934;6.958;2023-02-07T06:44:01;6.00;;;5.50;;
3677;SDS011;1855;50.934;6.958;2023-02-07T06:46:27;5.80;;;5.20;;
3677;SDS011;1855;50.934;6.958;2023-02-07T06:48:54;5.50;;;5.00;;
3677;SDS011;1855;50.934;6.958;2023-02-07T06:51:21;6.10;;;5.50;;
3677;SDS011;1855;50.934;6.958;2023-02-07T06:53:48;5.60;;;4.80;;
3677;SDS011;1855;50.934;6.958;2023-02-07T06:56:16;5.32;;;4.82;;
3677;SDS011;1855;50.934;6.958;2023-02-07T06:58:43;6.20;;;5.45;;
3677;SDS011;1855;50.934;6.958;2023-02-07T07:01:10;5.32;;;4.90;;
3677;SDS011;1855;50.934;6.958;2023-02-07T07:03:37;5.43;;;4.90;;
3677;SDS011;1855;50.934;6.958;2023-02-07T07:06:04;5.00;;;4.50;;
3677;SDS011;1855;50.934;6.958;2023-02-07T07:08:31;4.80;;;4.40;;
3677;SDS011;1855;50.934;6.958;2023-02-07T07:10:57;4.70;;;4.30;;
3677;SDS011;1855;50.934;6.958;2023-02-07T07:13:26;4.55;;;4.15;;
3677;SDS011;1855;50.934;6.958;2023-02-07T07:15:52;5.13;;;4.72;;
3677;SDS011;1855;50.934;6.958;2023-02-07T07:18:19;4.82;;;4.18;;
3677;SDS011;1855;50.934;6.958;2023-02-07T07:20:46;5.28;;;4.63;;
3677;SDS011;1855;50.934;6.958;2023-02-07T07:23:18;5.38;;;4.63;;
3677;SDS011;1855;50.934;6.958;2023-02-07T07:25:44;6.13;;;5.00;;
3677;SDS011;1855;50.934;6.958;2023-02-07T07:28:11;5.88;;;4.55;;
3677;SDS011;1855;50.934;6.958;2023-02-07T07:30:39;5.75;;;4.80;;
3677;SDS011;1855;50.934;6.958;2023-02-07T07:33:06;5.53;;;4.93;;
3677;SDS011;1855;50.934;6.958;2023-02-07T07:35:33;5.97;;;5.38;;
3677;SDS011;1855;50.934;6.958;2023-02-07T07:38:00;5.50;;;4.70;;
3677;SDS011;1855;50.934;6.958;2023-02-07T07:40:26;8.25;;;5.97;;
3677;SDS011;1855;50.934;6.958;2023-02-07T07:42:53;5.32;;;4.10;;
3677;SDS011;1855;50.934;6.958;2023-02-07T07:45:20;5.20;;;4.70;;
3677;SDS011;1855;50.934;6.958;2023-02-07T07:47:48;5.50;;;4.95;;
3677;SDS011;1855;50.934;6.958;2023-02-07T07:50:15;5.13;;;4.63;;
3677;SDS011;1855;50.934;6.958;2023-02-07T07:52:42;6.07;;;5.18;;
3677;SDS011;1855;50.934;6.958;2023-02-07T07:55:08;5.50;;;5.00;;
3677;SDS011;1855;50.934;6.958;2023-02-07T07:57:35;4.80;;;4.40;;
3677;SDS011;1855;50.934;6.958;2023-02-07T08:00:02;5.80;;;5.30;;
3677;SDS011;1855;50.934;6.958;2023-02-07T08:02:30;5.30;;;4.80;;
3677;SDS011;1855;50.934;6.958;2023-02-07T08:04:58;5.32;;;4.82;;
3677;SDS011;1855;50.934;6.958;2023-02-07T08:07:25;8.52;;;5.80;;
3677;SDS011;1855;50.934;6.958;2023-02-07T08:09:52;7.32;;;5.60;;
3677;SDS011;1855;50.934;6.958;2023-02-07T08:12:18;7.78;;;5.45;;
3677;SDS011;1855;50.934;6.958;2023-02-07T08:14:45;6.40;;;5.70;;
3677;SDS011;1855;50.934;6.958;2023-02-07T08:17:12;5.60;;;5.10;;
3677;SDS011;1855;50.934;6.958;2023-02-07T08:19:39;5.40;;;4.90;;
3677;SDS011;1855;50.934;6.958;2023-02-07T08:22:07;7.80;;;6.10;;
3677;SDS011;1855;50.934;6.958;2023-02-07T08:24:33;6.15;;;5.13;;
3677;SDS011;1855;50.934;6.958;2023-02-07T08:27:01;6.97;;;6.07;;
3677;SDS011;1855;50.934;6.958;2023-02-07T08:29:28;7.88;;;5.82;;
3677;SDS011;1855;50.934;6.958;2023-02-07T08:31:54;6.20;;;4.20;;
3677;SDS011;1855;50.934;6.958;2023-02-07T08:34:21;4.97;;;4.47;;
3677;SDS011;1855;50.934;6.958;2023-02-07T08:36:50;5.35;;;4.85;;
3677;SDS011;1855;50.934;6.958;2023-02-07T08:39:18;5.27;;;4.60;;
3677;SDS011;1855;50.934;6.958;2023-02-07T08:41:45;5.13;;;4.65;;
3677;SDS011;1855;50.934;6.958;2023-02-07T08:44:12;5.38;;;4.70;;
3677;SDS011;1855;50.934;6.958;2023-02-07T08:46:39;5.20;;;4.70;;
3677;SDS011;1855;50.934;6.958;2023-02-07T08:49:06;5.70;;;5.10;;
3677;SDS011;1855;50.934;6.958;2023-02-07T08:51:33;5.28;;;4.60;;
3677;SDS011;1855;50.934;6.958;2023-02-07T08:54:00;5.63;;;5.13;;
3677;SDS011;1855;50.934;6.958;2023-02-07T08:56:28;5.20;;;4.70;;
3677;SDS011;1855;50.934;6.958;2023-02-07T08:58:55;4.70;;;4.20;;
3677;SDS011;1855;50.934;6.958;2023-02-07T09:01:22;5.40;;;4.80;;
3677;SDS011;1855;50.934;6.958;2023-02-07T09:03:48;5.25;;;4.85;;
3677;SDS011;1855;50.934;6.958;2023-02-07T09:06:15;4.78;;;4.30;;
3677;SDS011;1855;50.934;6.958;2023-02-07T09:08:42;5.20;;;4.70;;
3677;SDS011;1855;50.934;6.958;2023-02-07T09:11:09;5.10;;;4.70;;
3677;SDS011;1855;50.934;6.958;2023-02-07T09:13:37;5.15;;;4.65;;
3677;SDS011;1855;50.934;6.958;2023-02-07T09:16:04;4.80;;;4.40;;
3677;SDS011;1855;50.934;6.958;2023-02-07T09:18:31;4.90;;;4.50;;
3677;SDS011;1855;50.934;6.958;2023-02-07T09:20:58;5.38;;;4.97;;
3677;SDS011;1855;50.934;6.958;2023-02-07T09:23:25;6.13;;;4.95;;
3677;SDS011;1855;50.934;6.958;2023-02-07T09:25:52;5.00;;;4.40;;
3677;SDS011;1855;50.934;6.958;2023-02-07T09:28:19;4.70;;;4.30;;
3677;SDS011;1855;50.934;6.958;2023-02-07T09:30:48;5.50;;;5.10;;
3677;SDS011;1855;50.934;6.958;2023-02-07T09:33:15;5.22;;;4.68;;
3677;SDS011;1855;50.934;6.958;2023-02-07T09:35:42;4.70;;;4.30;;
3677;SDS011;1855;50.934;6.958;2023-02-07T09:38:11;5.25;;;4.85;;
3677;SDS011;1855;50.934;6.958;2023-02-07T09:40:39;4.80;;;4.50;;
3677;SDS011;1855;50.934;6.958;2023-02-07T09:43:10;5.40;;;5.00;;
3677;SDS011;1855;50.934;6.958;2023-02-07T09:45:46;5.68;;;5.18;;
3677;SDS011;1855;50.934;6.958;2023-02-07T09:48:21;6.03;;;5.43;;
3677;SDS011;1855;50.934;6.958;2023-02-07T09:50:51;5.35;;;4.95;;
3677;SDS011;1855;50.934;6.958;2023-02-07T09:53:22;6.72;;;5.57;;
3677;SDS011;1855;50.934;6.958;2023-02-07T09:55:54;5.68;;;5.18;;
3677;SDS011;1855;50.934;6.958;2023-02-07T09:58:26;5.63;;;5.13;;
3677;SDS011;1855;50.934;6.958;2023-02-07T10:01:02;5.53;;;5.03;;
3677;SDS011;1855;50.934;6.958;2023-02-07T10:03:33;5.68;;;5.28;;
3677;SDS011;1855;50.934;6.958;2023-02-07T10:06:03;5.80;;;5.18;;
3677;SDS011;1855;50.934;6.958;2023-02-07T10:08:33;5.80;;;5.30;;
3677;SDS011;1855;50.934;6.958;2023-02-07T10:11:05;5.63;;;5.20;;
3677;SDS011;1855;50.934;6.958;2023-02-07T10:13:45;5.85;;;5.35;;
3677;SDS011;1855;50.934;6.958;2023-02-07T10:16:28;5.55;;;5.05;;
3677;SDS011;1855;50.934;6.958;2023-02-07T10:19:11;7.00;;;5.00;;
3677;SDS011;1855;50.934;6.958;2023-02-07T10:21:53;5.73;;;5.20;;
3677;SDS011;1855;50.934;6.958;2023-02-07T10:24:30;5.40;;;5.00;;
3677;SDS011;1855;50.934;6.958;2023-02-07T10:27:16;5.60;;;5.10;;
3677;SDS011;1855;50.934;6.958;2023-02-07T10:29:53;5.75;;;5.35;;
3677;SDS011;1855;50.934;6.958;2023-02-07T10:32:23;8.13;;;6.57;;
3677;SDS011;1855;50.934;6.958;2023-02-07T10:34:53;6.50;;;6.00;;
3677;SDS011;1855;50.934;6.958;2023-02-07T10:37:22;5.65;;;5.15;;
3677;SDS011;1855;50.934;6.958;2023-02-07T10:39:51;6.30;;;5.70;;
3677;SDS011;1855;50.934;6.958;2023-02-07T10:42:23;6.10;;;5.60;;
3677;SDS011;1855;50.934;6.958;2023-02-07T10:44:51;6.30;;;5.70;;
3677;SDS011;1855;50.934;6.958;2023-02-07T10:47:18;6.10;;;5.60;;
3677;SDS011;1855;50.934;6.958;2023-02-07T10:49:48;6.22;;;5.72;;
3677;SDS011;1855;50.934;6.958;2023-02-07T10:52:28;6.00;;;5.50;;
3677;SDS011;1855;50.934;6.958;2023-02-07T10:55:00;6.45;;;5.95;;
3677;SDS011;1855;50.934;6.958;2023-02-07T10:57:28;6.20;;;5.70;;
3677;SDS011;1855;50.934;6.958;2023-02-07T10:59:56;6.90;;;6.30;;
3677;SDS011;1855;50.934;6.958;2023-02-07T11:02:37;6.57;;;6.07;;
3677;SDS011;1855;50.934;6.958;2023-02-07T11:05:31;6.30;;;5.70;;
3677;SDS011;1855;50.934;6.958;2023-02-07T11:08:03;6.95;;;6.25;;
3677;SDS011;1855;50.934;6.958;2023-02-07T11:10:33;6.15;;;5.60;;
3677;SDS011;1855;50.934;6.958;2023-02-07T11:13:02;6.72;;;6.03;;
3677;SDS011;1855;50.934;6.958;2023-02-07T11:15:36;6.30;;;5.80;;
3677;SDS011;1855;50.934;6.958;2023-02-07T11:18:18;6.10;;;5.60;;
3677;SDS011;1855;50.934;6.958;2023-02-07T11:20:53;6.30;;;5.80;;
3677;SDS011;1855;50.934;6.958;2023-02-07T11:23:21;8.77;;;7.95;;
3677;SDS011;1855;50.934;6.958;2023-02-07T11:25:51;7.30;;;6.45;;
3677;SDS011;1855;50.934;6.958;2023-02-07T11:28:20;6.60;;;6.10;;
3677;SDS011;1855;50.934;6.958;2023-02-07T11:30:50;6.10;;;5.60;;
3677;SDS011;1855;50.934;6.958;2023-02-07T11:33:24;5.80;;;5.30;;
3677;SDS011;1855;50.934;6.958;2023-02-07T11:36:09;6.10;;;5.60;;
3677;SDS011;1855;50.934;6.958;2023-02-07T11:38:39;5.65;;;5.25;;
3677;SDS011;1855;50.934;6.958;2023-02-07T11:41:18;5.68;;;5.18;;
3677;SDS011;1855;50.934;6.958;2023-02-07T11:43:52;5.83;;;5.40;;
3677;SDS011;1855;50.934;6.958;2023-02-07T11:46:20;6.30;;;5.80;;
3677;SDS011;1855;50.934;6.958;2023-02-07T11:48:50;5.90;;;5.40;;
3677;SDS011;1855;50.934;6.958;2023-02-07T11:51:22;5.50;;;5.10;;
3677;SDS011;1855;50.934;6.958;2023-02-07T11:53:51;6.05;;;5.55;;
3677;SDS011;1855;50.934;6.958;2023-02-07T11:56:21;6.50;;;6.00;;
3677;SDS011;1855;50.934;6.958;2023-02-07T11:58:49;6.05;;;5.55;;
3677;SDS011;1855;50.934;6.958;2023-02-07T12:01:18;6.00;;;5.50;;
3677;SDS011;1855;50.934;6.958;2023-02-07T12:03:51;7.05;;;6.03;;
3677;SDS011;1855;50.934;6.958;2023-02-07T12:06:26;6.28;;;5.78;;
3677;SDS011;1855;50.934;6.958;2023-02-07T12:08:58;6.20;;;5.70;;
3677;SDS011;1855;50.934;6.958;2023-02-07T12:11:27;6.25;;;5.70;;
3677;SDS011;1855;50.934;6.958;2023-02-07T12:14:01;5.80;;;5.40;;
3677;SDS011;1855;50.934;6.958;2023-02-07T12:16:34;5.50;;;5.10;;
3677;SDS011;1855;50.934;6.958;2023-02-07T12:19:04;6.18;;;5.68;;
3677;SDS011;1855;50.934;6.958;2023-02-07T12:21:41;6.20;;;5.70;;
3677;SDS011;1855;50.934;6.958;2023-02-07T12:24:19;5.50;;;5.10;;
3677;SDS011;1855;50.934;6.958;2023-02-07T12:26:50;5.28;;;4.88;;
3677;SDS011;1855;50.934;6.958;2023-02-07T12:29:23;5.30;;;4.88;;
3677;SDS011;1855;50.934;6.958;2023-02-07T12:31:58;5.50;;;5.10;;
3677;SDS011;1855;50.934;6.958;2023-02-07T12:34:29;5.50;;;5.10;;
3677;SDS011;1855;50.934;6.958;2023-02-07T12:37:04;5.67;;;4.93;;
3677;SDS011;1855;50.934;6.958;2023-02-07T12:39:40;5.43;;;5.03;;
3677;SDS011;1855;50.934;6.958;2023-02-07T12:42:14;4.90;;;4.40;;
3677;SDS011;1855;50.934;6.958;2023-02-07T12:44:51;5.18;;;4.80;;
3677;SDS011;1855;50.934;6.958;2023-02-07T12:47:22;4.90;;;4.50;;
3677;SDS011;1855;50.934;6.958;2023-02-07T12:50:01;4.97;;;4.60;;
3677;SDS011;1855;50.934;6.958;2023-02-07T12:52:40;5.20;;;4.80;;
3677;SDS011;1855;50.934;6.958;2023-02-07T12:55:15;5.40;;;5.00;;
3677;SDS011;1855;50.934;6.958;2023-02-07T12:57:53;4.85;;;4.50;;
3677;SDS011;1855;50.934;6.958;2023-02-07T13:00:26;4.90;;;4.50;;
3677;SDS011;1855;50.934;6.958;2023-02-07T13:03:07;4.90;;;4.60;;
3677;SDS011;1855;50.934;6.958;2023-02-07T13:08:41;4.90;;;4.50;;
3677;SDS011;1855;50.934;6.958;2023-02-07T13:11:18;4.40;;;4.10;;
3677;SDS011;1855;50.934;6.958;2023-02-07T13:13:54;4.40;;;4.10;;
3677;SDS011;1855;50.934;6.958;2023-02-07T13:16:33;4.80;;;4.40;;
3677;SDS011;1855;50.934;6.958;2023-02-07T13:19:06;5.00;;;4.60;;
3677;SDS011;1855;50.934;6.958;2023-02-07T13:21:39;4.93;;;4.63;;
3677;SDS011;1855;50.934;6.958;2023-02-07T13:24:14;5.20;;;4.80;;
3677;SDS011;1855;50.934;6.958;2023-02-07T13:26:47;5.00;;;4.60;;
3677;SDS011;1855;50.934;6.958;2023-02-07T13:29:16;4.90;;;4.50;;
3677;SDS011;1855;50.934;6.958;2023-02-07T13:31:47;4.83;;;4.43;;
3677;SDS011;1855;50.934;6.958;2023-02-07T13:34:17;4.90;;;4.50;;
3677;SDS011;1855;50.934;6.958;2023-02-07T13:36:47;4.47;;;4.18;;
3677;SDS011;1855;50.934;6.958;2023-02-07T13:39:27;4.50;;;4.10;;
3677;SDS011;1855;50.934;6.958;2023-02-07T13:42:10;4.63;;;4.22;;
3677;SDS011;1855;50.934;6.958;2023-02-07T13:44:45;5.70;;;5.20;;
3677;SDS011;1855;50.934;6.958;2023-02-07T13:50:12;4.30;;;4.00;;
3677;SDS011;1855;50.934;6.958;2023-02-07T13:52:45;4.90;;;4.50;;
3677;SDS011;1855;50.934;6.958;2023-02-07T13:55:23;4.90;;;4.60;;
3677;SDS011;1855;50.934;6.958;2023-02-07T13:57:55;4.85;;;4.45;;
3677;SDS011;1855;50.934;6.958;2023-02-07T14:01:06;4.73;;;4.33;;
3677;SDS011;1855;50.934;6.958;2023-02-07T14:03:35;5.05;;;4.55;;
3677;SDS011;1855;50.934;6.958;2023-02-07T14:06:15;4.50;;;4.20;;
3677;SDS011;1855;50.934;6.958;2023-02-07T14:08:54;4.25;;;3.95;;
3677;SDS011;1855;50.934;6.958;2023-02-07T14:11:28;4.90;;;4.50;;
3677;SDS011;1855;50.934;6.958;2023-02-07T14:14:04;4.78;;;4.40;;
3677;SDS011;1855;50.934;6.958;2023-02-07T14:16:44;4.38;;;4.07;;
3677;SDS011;1855;50.934;6.958;2023-02-07T14:19:14;4.60;;;4.30;;
3677;SDS011;1855;50.934;6.958;2023-02-07T14:21:42;4.85;;;4.40;;
3677;SDS011;1855;50.934;6.958;2023-02-07T14:24:19;4.30;;;4.00;;
3677;SDS011;1855;50.934;6.958;2023-02-07T14:26:59;4.40;;;4.10;;
3677;SDS011;1855;50.934;6.958;2023-02-07T14:29:40;4.80;;;4.40;;
3677;SDS011;1855;50.934;6.958;2023-02-07T14:32:44;5.45;;;4.95;;
3677;SDS011;1855;50.934;6.958;2023-02-07T14:35:30;4.60;;;4.20;;
3677;SDS011;1855;50.934;6.958;2023-02-07T14:38:00;4.68;;;4.38;;
3677;SDS011;1855;50.934;6.958;2023-02-07T14:40:50;4.60;;;4.20;;
3677;SDS011;1855;50.934;6.958;2023-02-07T14:43:24;4.53;;;4.15;;
3677;SDS011;1855;50.934;6.958;2023-02-07T14:45:59;4.93;;;4.53;;
3677;SDS011;1855;50.934;6.958;2023-02-07T14:48:31;4.57;;;4.28;;
3677;SDS011;1855;50.934;6.958;2023-02-07T14:51:10;4.60;;;4.20;;
3677;SDS011;1855;50.934;6.958;2023-02-07T14:53:38;4.72;;;4.32;;
3677;SDS011;1855;50.934;6.958;2023-02-07T14:56:05;5.57;;;4.50;;
3677;SDS011;1855;50.934;6.958;2023-02-07T14:58:43;5.05;;;4.70;;
3677;SDS011;1855;50.934;6.958;2023-02-07T15:01:12;5.82;;;5.22;;
3677;SDS011;1855;50.934;6.958;2023-02-07T15:03:44;4.65;;;4.35;;
3677;SDS011;1855;50.934;6.958;2023-02-07T15:06:15;5.30;;;4.90;;
3677;SDS011;1855;50.934;6.958;2023-02-07T15:08:53;5.18;;;4.68;;
3677;SDS011;1855;50.934;6.958;2023-02-07T15:11:22;4.50;;;4.20;;
3677;SDS011;1855;50.934;6.958;2023-02-07T15:13:53;4.70;;;4.30;;
3677;SDS011;1855;50.934;6.958;2023-02-07T15:16:21;4.70;;;4.30;;
3677;SDS011;1855;50.934;6.958;2023-02-07T15:18:51;4.78;;;4.28;;
3677;SDS011;1855;50.934;6.958;2023-02-07T15:21:21;4.40;;;4.05;;
3677;SDS011;1855;50.934;6.958;2023-02-07T15:23:54;4.35;;;4.00;;
3677;SDS011;1855;50.934;6.958;2023-02-07T15:26:25;4.70;;;4.30;;
3677;SDS011;1855;50.934;6.958;2023-02-07T15:29:00;4.60;;;4.20;;
3677;SDS011;1855;50.934;6.958;2023-02-07T15:31:29;4.68;;;3.78;;
3677;SDS011;1855;50.934;6.958;2023-02-07T15:34:04;4.43;;;4.03;;
3677;SDS011;1855;50.934;6.958;2023-02-07T15:36:37;4.47;;;4.07;;
3677;SDS011;1855;50.934;6.958;2023-02-07T15:39:06;4.60;;;4.10;;
3677;SDS011;1855;50.934;6.958;2023-02-07T15:41:39;3.90;;;3.60;;
3677;SDS011;1855;50.934;6.958;2023-02-07T15:44:18;6.22;;;5.63;;
3677;SDS011;1855;50.934;6.958;2023-02-07T15:46:47;4.88;;;4.38;;